To NAV CANADA Home Page Login to a new session Search on AWWS site Feedback and Comments Disclaimer Vers la page française équivalente Tips FAQ What's new on the site To the Forecasts and Observations / NOTAM section To "File a Flight Plan" website Publications and other links Update of the User's profile FIC Telephone Numbers My Weather Data Folder Route Weather Data Regional Weather Data Local Weather Data To the Forecasts and Observations / NOTAM section
Request Generated 02/14/2016 at 01:28:47 UTC . Weather information available at that time is displayed.

METAR/TAF

BAKER LAKE/NU    

METAR CYBK 140100Z 09009KT 15SM BKN030 M29/M32 A2998 RMK SC6 SLP156
DENSITY ALT MISG=
METAR CYBK 140000Z 08012KT 15SM BKN030 BKN090 M28/M32 A2999 RMK
SC5AC2 SLP160 DENSITY ALT MISG=
METAR CYBK 132300Z 08012G18KT 20SM FEW030 BKN090 M28/M32 A3000 RMK
SC2AC4 SLP164 DENSITY ALT MISG=

TAF CYBK 132338Z 1400/1412 09015KT P6SM FEW030 OVC100
FM140400 10015KT P6SM SCT020 BKN100 TEMPO 1404/1412 4SM -SN
BKN020 OVC100
RMK NXT FCST BY 140600Z=
Your time UTC time
Weather data provided by Environment Canada and NAV CANADA